createdAt,value
2018-06-18T05:23:43.134Z,88.16
2018-06-18T05:24:41.585Z,88.54
2018-06-18T05:26:46.068Z,87.68
2018-06-18T05:27:46.022Z,88.06
2018-06-18T05:29:44.984Z,88.45
2018-06-18T05:30:44.002Z,88.16
2018-06-18T05:32:42.496Z,88.54
2018-06-18T05:33:41.929Z,88.45
2018-06-18T05:35:41.389Z,88.45
2018-06-18T05:36:40.910Z,88.25
2018-06-18T05:38:40.529Z,88.35
2018-06-18T05:39:40.556Z,88.35
2018-06-18T05:41:38.496Z,88.73
2018-06-18T05:42:38.497Z,88.16
2018-06-18T05:44:36.587Z,87.92
2018-06-18T05:45:36.616Z,87.87
2018-06-18T05:47:35.604Z,86.95
2018-06-18T05:48:34.721Z,87.43
2018-06-18T05:50:33.789Z,86.76
2018-06-18T05:51:33.672Z,86.85
2018-06-18T05:53:34.197Z,86.95
2018-06-18T05:54:34.100Z,86.66
2018-06-18T05:56:33.107Z,86.76
2018-06-18T05:57:32.237Z,87.05
2018-06-18T05:59:32.724Z,86.61
2018-06-18T06:00:32.711Z,86.95
2018-06-18T06:02:28.718Z,86.42
2018-06-18T06:03:28.732Z,86.90
2018-06-18T06:05:28.647Z,86.61
2018-06-18T06:06:27.641Z,86.52
2018-06-18T06:08:29.222Z,86.13
2018-06-18T06:09:28.091Z,85.65
2018-06-18T06:11:26.064Z,85.84
2018-06-18T06:12:26.572Z,85.55
2018-06-18T06:14:23.584Z,85.84
2018-06-18T06:15:24.039Z,85.65
2018-06-18T06:17:24.481Z,85.46
2018-06-18T06:18:23.532Z,85.55
2018-06-18T06:20:22.944Z,85.17
2018-06-18T06:21:23.477Z,85.36
2018-06-18T06:23:22.129Z,85.27
2018-06-18T06:24:22.629Z,85.60
2018-06-18T06:26:22.621Z,84.73
2018-06-18T06:27:23.087Z,84.54
2018-06-18T06:29:23.546Z,84.34
2018-06-18T06:30:23.069Z,84.19
2018-06-18T06:32:20.973Z,84.39
2018-06-18T06:33:20.978Z,83.81
2018-06-18T06:35:20.967Z,83.91
2018-06-18T06:36:19.957Z,83.91
2018-06-18T06:38:20.098Z,82.98
2018-06-18T06:39:19.609Z,82.98
2018-06-18T06:41:18.045Z,82.16
2018-06-18T06:42:17.679Z,81.68
2018-06-18T06:44:17.189Z,80.66
2018-06-18T06:45:16.651Z,80.14
2018-06-18T06:47:16.623Z,80.43
2018-06-18T06:48:17.116Z,81.10
2018-06-18T06:50:17.113Z,80.52
2018-06-18T06:51:17.121Z,80.71
2018-06-18T06:53:13.665Z,80.62
2018-06-18T06:54:13.655Z,80.71
2018-06-18T06:56:14.574Z,81.77
2018-06-18T06:57:14.107Z,82.16
2018-06-18T06:59:15.009Z,82.26
2018-06-18T07:00:15.503Z,82.54
2018-06-18T07:02:17.017Z,81.96
2018-06-18T07:03:15.025Z,82.35
2018-06-18T07:05:13.490Z,82.16
2018-06-18T07:06:13.941Z,82.79
2018-06-18T07:08:08.960Z,82.70
2018-06-18T07:09:09.401Z,82.12
2018-06-18T07:11:08.897Z,83.28
2018-06-18T07:12:07.886Z,83.47
2018-06-18T07:14:09.282Z,83.75
2018-06-18T07:15:09.300Z,83.56
2018-06-18T07:17:11.259Z,83.95
2018-06-18T07:18:13.198Z,83.62
2018-06-18T07:20:10.293Z,84.14
2018-06-18T07:21:09.236Z,84.39
2018-06-18T07:23:08.269Z,84.67
2018-06-18T07:24:08.116Z,84.67
2018-06-18T07:26:08.262Z,84.67
2018-06-18T07:27:07.801Z,84.67
2018-06-18T07:29:06.627Z,85.74
2018-06-18T07:30:06.676Z,85.64
2018-06-18T07:32:30.529Z,85.35
2018-06-18T07:40:22.870Z,85.83
2018-06-18T07:41:22.905Z,86.02
2018-06-18T07:43:26.664Z,85.93
2018-06-18T07:44:23.434Z,86.22
2018-06-18T07:46:24.389Z,86.12
2018-06-18T07:47:24.795Z,85.83
2018-06-18T07:49:27.030Z,85.83
2018-06-18T07:50:26.817Z,85.93
2018-06-18T07:52:24.697Z,86.31
2018-06-18T07:53:24.760Z,86.31
2018-06-18T07:55:25.215Z,86.60
2018-06-18T07:56:26.142Z,86.31
2018-06-18T07:58:24.145Z,86.46
2018-06-18T07:59:23.387Z,86.56
2018-06-18T08:01:25.822Z,86.94
2018-06-18T08:02:23.798Z,86.85
2018-06-18T08:04:32.663Z,86.75
2018-06-18T08:05:31.090Z,86.36
2018-06-18T08:07:31.628Z,86.12
2018-06-18T08:08:31.933Z,85.93
2018-06-18T08:10:31.925Z,85.74
2018-06-18T08:11:36.797Z,85.93
2018-06-18T08:13:33.387Z,85.25
2018-06-18T08:14:33.769Z,85.10
2018-06-18T08:16:30.840Z,84.81
2018-06-18T08:19:28.351Z,85.58
2018-06-18T08:22:12.361Z,84.95
2018-06-18T08:23:10.878Z,84.95
2018-06-18T08:25:12.000Z,84.28
2018-06-18T08:26:11.585Z,83.51
2018-06-18T08:28:12.048Z,82.78
2018-06-18T08:29:13.085Z,82.49
2018-06-18T08:31:13.488Z,81.62
2018-06-18T08:32:13.222Z,81.62
2018-06-18T08:34:12.428Z,81.62
2018-06-18T08:35:11.670Z,81.62
2018-06-18T08:37:14.659Z,81.43
2018-06-18T08:38:12.304Z,81.43
2018-06-18T08:40:10.994Z,80.94
2018-06-18T08:42:57.075Z,81.14
2018-06-18T08:43:57.140Z,80.76
2018-06-18T08:45:57.564Z,80.46
2018-06-18T08:46:58.302Z,79.98
2018-06-18T08:48:59.050Z,79.83
2018-06-18T08:50:12.757Z,78.77
2018-06-18T08:52:00.111Z,78.19
2018-06-18T08:53:01.701Z,78.00
2018-06-18T08:55:10.018Z,77.46
2018-06-18T08:56:10.390Z,76.78
2018-06-18T08:58:12.477Z,76.40
2018-06-18T08:59:09.520Z,76.01
2018-06-18T09:01:15.651Z,76.20
2018-06-18T09:02:15.409Z,76.40
2018-06-18T09:04:15.864Z,75.72
2018-06-18T09:05:16.445Z,76.15
2018-06-18T09:07:14.830Z,76.92
2018-06-18T09:08:13.333Z,74.99
2018-06-18T09:10:12.259Z,74.64
2018-06-18T09:11:11.748Z,73.73
2018-06-18T09:13:11.798Z,74.16
2018-06-18T09:14:09.861Z,74.06
2018-06-18T09:16:10.364Z,70.48
2018-06-18T09:17:10.356Z,70.97
2018-06-18T09:19:08.322Z,72.52
2018-06-18T09:20:09.771Z,72.52
2018-06-18T09:22:08.764Z,71.26
2018-06-18T09:23:09.642Z,71.74
2018-06-18T09:25:09.782Z,73.15
2018-06-18T09:26:10.125Z,73.93
2018-06-18T09:28:09.224Z,75.14
2018-06-18T09:29:08.191Z,74.57
2018-06-18T09:31:05.800Z,73.44
2018-06-18T09:32:05.366Z,73.73
2018-06-18T09:34:02.230Z,74.99
2018-06-18T09:35:01.295Z,75.72
2018-06-18T09:36:58.248Z,76.78
2018-06-18T09:37:58.256Z,76.98
2018-06-18T09:39:54.716Z,76.34
2018-06-18T09:40:54.227Z,77.11
2018-06-18T09:42:50.166Z,74.60
2018-06-18T09:43:50.168Z,74.41
2018-06-18T09:45:46.153Z,74.44
2018-06-18T09:46:47.841Z,72.80
2018-06-18T09:48:46.753Z,72.42
2018-06-18T09:49:47.665Z,72.42
2018-06-18T09:51:48.069Z,72.42
2018-06-18T09:52:47.994Z,72.58
2018-06-18T09:54:48.182Z,72.61
2018-06-18T09:55:47.617Z,72.13
2018-06-18T09:57:48.512Z,72.48
2018-06-18T09:58:47.991Z,73.15
2018-06-18T10:00:52.534Z,73.73
2018-06-18T10:01:52.966Z,74.69
2018-06-18T10:03:55.046Z,74.89
2018-06-18T10:04:52.933Z,75.24
2018-06-18T10:06:56.916Z,75.92
2018-06-18T10:07:54.454Z,76.34
2018-06-18T10:09:56.402Z,76.20
2018-06-18T10:10:54.924Z,76.82
2018-06-18T10:12:55.359Z,75.95
2018-06-18T10:13:56.892Z,75.85
2018-06-18T10:15:56.309Z,76.15
2018-06-18T10:16:55.872Z,76.34
2018-06-18T10:18:56.392Z,74.99
2018-06-18T10:19:56.383Z,74.51
2018-06-18T10:21:57.273Z,74.06
2018-06-18T10:22:57.827Z,74.16
2018-06-18T10:24:57.327Z,73.77
2018-06-18T10:25:57.328Z,74.83
2018-06-18T10:27:58.205Z,74.10
2018-06-18T10:28:57.691Z,72.55
2018-06-18T10:30:58.816Z,70.42
2018-06-18T10:31:58.359Z,70.46
2018-06-18T10:33:58.730Z,67.27
2018-06-18T10:34:58.670Z,65.72
2018-06-18T10:37:00.158Z,66.72
2018-06-18T10:38:16.643Z,67.36
2018-06-18T10:40:06.665Z,66.53
2018-06-18T10:41:15.669Z,65.85
2018-06-18T10:43:26.857Z,64.92
2018-06-18T10:46:24.139Z,63.66
2018-06-18T10:47:22.715Z,62.98
2018-06-18T10:49:23.128Z,63.53
2018-06-18T10:50:24.077Z,63.63
2018-06-18T10:52:23.965Z,65.43
2018-06-18T10:53:26.421Z,66.36
2018-06-18T10:55:32.994Z,66.75
2018-06-18T10:57:57.052Z,66.17
2018-06-18T10:58:51.677Z,66.56
2018-06-18T11:00:53.560Z,66.66
2018-06-18T11:01:52.192Z,66.85
2018-06-18T11:03:58.392Z,67.04
2018-06-18T11:05:15.507Z,67.04
2018-06-18T11:07:04.185Z,68.10
2018-06-18T11:10:25.239Z,66.46
2018-06-18T11:10:47.459Z,66.17
2018-06-18T11:12:53.515Z,66.78
2018-06-18T11:15:40.829Z,66.36
2018-06-18T11:16:40.721Z,66.78
2018-06-18T11:18:41.232Z,67.82
2018-06-18T11:19:43.427Z,68.59
2018-06-18T11:21:42.493Z,69.17
2018-06-18T11:22:42.111Z,68.59
2018-06-18T11:24:44.180Z,69.59
2018-06-18T11:25:42.476Z,69.26
2018-06-18T11:27:42.981Z,68.49
2018-06-18T11:28:43.090Z,68.78
2018-06-18T11:30:53.395Z,69.07
2018-06-18T11:31:52.568Z,69.17
2018-06-18T11:34:24.367Z,67.72
2018-06-18T11:35:19.110Z,67.52
2018-06-18T11:37:19.438Z,67.62
2018-06-18T11:38:19.936Z,67.82
2018-06-18T11:40:32.478Z,68.59
2018-06-18T11:41:32.097Z,69.84
2018-06-18T11:43:39.117Z,68.59
2018-06-18T11:44:37.629Z,68.43
2018-06-18T11:46:39.681Z,67.72
2018-06-18T11:47:38.115Z,68.30
2018-06-18T11:49:39.103Z,70.32
2018-06-18T11:50:38.580Z,70.14
2018-06-18T11:52:40.604Z,71.10
2018-06-18T11:53:40.147Z,71.58
2018-06-18T11:55:40.643Z,71.04
2018-06-18T11:56:39.673Z,69.98
2018-06-18T11:58:42.005Z,69.01
2018-06-18T11:59:41.886Z,68.52
2018-06-18T12:01:42.464Z,69.20
2018-06-18T12:02:45.529Z,70.84
2018-06-18T12:04:44.349Z,71.04
2018-06-18T12:05:42.798Z,69.88
2018-06-18T12:07:44.270Z,71.00
2018-06-18T12:08:44.444Z,71.58
2018-06-18T12:10:50.771Z,72.16
2018-06-18T12:11:50.778Z,73.03
2018-06-18T12:13:50.877Z,72.16
2018-06-18T12:14:51.240Z,71.97
2018-06-18T12:16:51.581Z,73.32
2018-06-18T12:17:51.917Z,72.94
2018-06-18T12:19:52.685Z,74.10
2018-06-18T12:20:52.637Z,74.00
2018-06-18T12:22:52.266Z,74.29
2018-06-18T12:23:52.685Z,75.26
2018-06-18T12:25:53.626Z,76.03
2018-06-18T12:26:53.611Z,76.51
2018-06-18T12:28:53.692Z,75.93
2018-06-18T12:29:54.044Z,76.61
2018-06-18T12:31:54.584Z,77.05
2018-06-18T12:32:53.586Z,78.11
2018-06-18T12:34:54.520Z,79.75
2018-06-18T12:35:54.532Z,79.22
2018-06-18T12:37:55.547Z,79.22
2018-06-18T12:39:07.523Z,79.12
2018-06-18T12:40:55.166Z,78.54
2018-06-18T12:41:55.792Z,78.06
2018-06-18T12:43:53.529Z,79.99
2018-06-18T12:44:53.235Z,80.43
2018-06-18T12:48:41.182Z,81.30
2018-06-18T12:51:43.457Z,83.23
2018-06-18T12:52:42.771Z,82.75
2018-06-18T12:54:40.335Z,82.56
2018-06-18T12:57:16.580Z,81.68
2018-06-18T12:58:00.604Z,81.98
2018-06-18T13:00:01.005Z,82.26
2018-06-18T13:01:01.011Z,82.56
2018-06-18T13:03:01.959Z,81.44
2018-06-18T13:04:03.948Z,80.66
2018-06-18T13:06:02.919Z,80.90
2018-06-18T13:07:25.449Z,80.32
2018-06-18T13:09:03.468Z,79.74
2018-06-18T13:10:02.966Z,79.64
2018-06-18T13:13:26.954Z,79.25
2018-06-18T13:13:27.548Z,79.16
2018-06-18T13:15:29.298Z,78.23
2018-06-18T13:16:29.464Z,78.33
2018-06-18T13:23:42.941Z,75.17
2018-06-18T13:24:42.803Z,75.27
2018-06-18T13:26:47.469Z,74.59
2018-06-18T13:28:01.717Z,73.91
2018-06-18T13:29:48.722Z,75.07
2018-06-18T13:30:49.742Z,76.24
2018-06-18T13:34:01.278Z,79.49
2018-06-18T13:35:42.951Z,78.61
2018-06-18T13:37:06.084Z,78.33
2018-06-18T13:38:07.243Z,78.77
2018-06-18T13:40:33.165Z,81.05
2018-06-18T13:41:32.335Z,82.31
2018-06-18T13:43:32.992Z,86.17
2018-06-18T13:44:34.985Z,85.21
2018-06-18T13:46:33.970Z,84.91
2018-06-18T13:47:33.935Z,85.40
2018-06-18T13:51:49.441Z,84.39
2018-06-18T13:52:34.528Z,85.06
2018-06-18T13:54:34.034Z,85.16
2018-06-18T13:55:34.037Z,84.78
2018-06-18T13:57:36.504Z,84.97
2018-06-18T13:58:34.594Z,85.36
2018-06-18T14:00:32.539Z,84.20
2018-06-18T14:03:52.548Z,84.88
2018-06-18T14:04:53.953Z,83.91
2018-06-18T14:06:57.865Z,84.48
2018-06-18T14:09:17.685Z,82.75
2018-06-18T14:10:17.747Z,82.61
2018-06-18T14:12:21.409Z,83.48
2018-06-18T14:13:20.440Z,83.87
2018-06-18T14:15:34.423Z,83.87
2018-06-18T14:17:54.443Z,83.91
2018-06-18T14:20:08.237Z,84.06
2018-06-18T14:21:08.725Z,83.58
2018-06-18T14:23:11.308Z,84.54
2018-06-18T14:25:23.684Z,84.30
2018-06-18T14:26:22.785Z,84.20
2018-06-18T14:28:21.274Z,83.81
2018-06-18T14:29:21.781Z,83.33
2018-06-18T14:31:19.923Z,82.40
2018-06-18T14:32:35.573Z,82.40
2018-06-18T14:40:37.383Z,81.53
2018-06-18T14:51:35.761Z,79.54
2018-06-18T14:52:35.796Z,80.32
2018-06-18T14:55:39.745Z,79.50
2018-06-18T14:56:37.130Z,79.70
2018-06-18T15:00:39.487Z,80.03
2018-06-18T15:07:10.577Z,79.20
2018-06-18T15:07:44.892Z,79.20
2018-06-18T15:12:18.768Z,78.36
2018-06-18T15:16:15.011Z,75.65
2018-06-18T15:31:43.680Z,75.17
2018-06-18T15:38:11.214Z,74.63
2018-06-18T15:41:21.779Z,76.43
2018-06-18T15:43:40.929Z,77.01
2018-06-18T15:46:22.812Z,76.87
2018-06-18T15:47:22.281Z,76.01
2018-06-18T15:51:12.951Z,76.10
2018-06-18T15:54:12.117Z,77.17
2018-06-18T15:55:38.130Z,77.17
2018-06-18T16:10:47.626Z,77.55
2018-06-18T16:11:24.394Z,77.17
2018-06-18T16:13:50.271Z,77.65
2018-06-18T16:15:58.221Z,77.40
2018-06-18T16:16:57.701Z,76.97
2018-06-18T16:21:26.930Z,77.78
2018-06-18T16:22:28.638Z,77.94
2018-06-18T16:24:29.568Z,77.17
2018-06-18T16:25:29.619Z,77.07
2018-06-18T16:30:31.502Z,78.52
2018-06-18T16:32:54.370Z,78.17
2018-06-18T16:33:51.614Z,77.88
2018-06-18T16:36:17.672Z,77.30
2018-06-18T16:39:11.683Z,76.91
2018-06-18T16:59:05.719Z,69.95
2018-06-18T16:59:58.247Z,70.21
2018-06-18T17:06:40.244Z,72.11
2018-06-18T17:07:39.123Z,72.11
2018-06-18T17:09:35.750Z,72.30
2018-06-18T17:10:35.081Z,72.40
2018-06-18T17:13:00.915Z,73.24
2018-06-18T17:17:26.501Z,74.11
2018-06-18T17:18:24.850Z,74.30
2018-06-18T17:20:30.943Z,74.49
2018-06-18T17:24:13.517Z,74.30
2018-06-18T17:26:51.351Z,74.69
2018-06-18T17:27:22.119Z,74.59
2018-06-18T17:30:24.663Z,75.27
2018-06-18T17:30:32.229Z,75.07
2018-06-18T17:33:33.718Z,76.01
2018-06-18T17:34:34.256Z,76.29
2018-06-18T17:36:34.113Z,77.75
2018-06-18T17:37:35.008Z,78.23
2018-06-18T17:39:34.555Z,78.61
2018-06-18T17:40:34.504Z,78.61
2018-06-18T17:42:35.483Z,79.74
2018-06-18T17:43:36.479Z,79.20
2018-06-18T17:45:36.996Z,79.87
2018-06-18T17:46:36.438Z,79.00
2018-06-18T17:48:35.927Z,79.29
2018-06-18T17:49:37.000Z,79.29
2018-06-18T17:51:37.414Z,79.54
2018-06-18T17:52:36.451Z,79.00
2018-06-18T17:54:35.388Z,79.00
2018-06-18T17:55:35.351Z,79.64
2018-06-18T17:57:36.863Z,79.78
2018-06-18T17:58:37.832Z,79.83
2018-06-18T18:00:35.340Z,78.71
2018-06-18T18:01:34.976Z,78.71
2018-06-18T18:03:35.477Z,80.07
2018-06-18T18:04:36.515Z,79.97
2018-06-18T18:06:37.481Z,80.07
2018-06-18T18:07:35.934Z,80.84
2018-06-18T18:09:32.971Z,80.90
2018-06-18T18:10:32.932Z,80.90
2018-06-18T18:12:33.450Z,81.48
2018-06-18T18:13:33.946Z,81.29
2018-06-18T18:15:34.847Z,82.25
2018-06-18T18:16:34.825Z,81.09
2018-06-18T18:18:32.787Z,80.99
2018-06-18T18:19:32.111Z,81.19
2018-06-18T18:21:28.658Z,81.09
2018-06-18T18:22:27.646Z,81.09
2018-06-18T18:24:28.600Z,81.57
2018-06-18T18:25:28.092Z,81.96
2018-06-18T18:27:25.101Z,82.93
2018-06-18T18:28:25.106Z,83.61
2018-06-18T18:30:20.095Z,82.79
2018-06-18T18:31:20.099Z,82.69
2018-06-18T18:33:20.559Z,83.85
2018-06-18T18:34:20.590Z,83.47
2018-06-18T18:36:22.071Z,84.14
2018-06-18T18:37:21.533Z,84.05
2018-06-18T18:39:19.089Z,84.82
2018-06-18T18:40:19.077Z,85.21
2018-06-18T18:42:20.950Z,85.78
2018-06-18T18:43:19.513Z,85.88
2018-06-18T18:45:18.063Z,84.68
2018-06-18T18:46:18.015Z,84.53
2018-06-18T18:48:18.471Z,84.39
2018-06-18T18:49:18.021Z,85.01
2018-06-18T18:51:16.077Z,84.97
2018-06-18T18:52:16.519Z,84.97
2018-06-18T18:54:14.914Z,84.20
2018-06-18T18:55:14.981Z,84.88
2018-06-18T18:57:11.913Z,85.26
2018-06-18T18:58:12.066Z,85.74
2018-06-18T19:00:10.859Z,85.74
2018-06-18T19:01:10.796Z,86.03
2018-06-18T19:03:09.076Z,85.94
2018-06-18T19:04:08.338Z,85.84
2018-06-18T19:06:10.455Z,85.89
2018-06-18T19:07:09.709Z,86.47
2018-06-18T19:09:07.671Z,86.86
2018-06-18T19:10:06.857Z,87.05
2018-06-18T19:12:08.495Z,86.86
2018-06-18T19:13:07.460Z,87.34
2018-06-18T19:15:26.949Z,87.15
2018-06-18T19:16:35.219Z,87.05
2018-06-18T19:18:23.559Z,87.34
2018-06-18T19:19:22.570Z,87.82
2018-06-18T19:21:25.932Z,88.02
2018-06-18T19:22:23.855Z,88.26
2018-06-18T19:25:12.087Z,88.26
2018-06-18T19:25:55.919Z,88.26
2018-06-18T19:28:27.268Z,88.07
2018-06-18T19:29:13.704Z,88.65
2018-06-18T19:31:20.532Z,88.17
2018-06-18T19:31:58.708Z,88.93
2018-06-18T19:34:09.597Z,88.84
2018-06-18T19:35:08.983Z,88.26
2018-06-18T19:41:08.567Z,89.37
2018-06-18T19:42:34.776Z,89.67
2018-06-18T19:43:34.805Z,89.57
2018-06-18T19:53:27.078Z,90.44
2018-06-18T19:54:40.247Z,90.48
2018-06-18T19:56:22.794Z,90.39
2018-06-18T19:57:22.329Z,90.78
2018-06-18T19:59:24.849Z,90.68
2018-06-18T20:00:23.291Z,91.45
2018-06-18T20:02:29.797Z,91.74
2018-06-18T20:03:28.300Z,91.26
2018-06-18T20:05:27.739Z,92.03
2018-06-18T20:06:26.769Z,91.64
2018-06-18T20:08:26.752Z,91.55
2018-06-18T20:09:27.342Z,91.89
2018-06-18T20:11:28.357Z,92.03
2018-06-18T20:14:28.152Z,92.08
2018-06-18T20:15:32.140Z,92.18
2018-06-18T20:17:26.617Z,92.94
2018-06-18T20:18:25.783Z,93.43
2018-06-18T20:20:25.211Z,93.04
2018-06-18T20:21:23.873Z,92.85
2018-06-18T20:23:24.372Z,93.52
2018-06-18T20:24:24.814Z,93.52
2018-06-18T20:26:24.773Z,93.04
2018-06-18T20:27:24.920Z,93.04
2018-06-18T20:29:25.299Z,92.76
2018-06-18T20:30:25.736Z,92.85
2018-06-18T20:32:30.855Z,92.56
2018-06-18T20:33:25.745Z,92.56
2018-06-18T20:35:26.674Z,92.18
2018-06-18T20:36:26.153Z,91.89
2018-06-18T20:38:43.683Z,92.18
2018-06-18T20:39:28.628Z,92.18
2018-06-18T20:41:28.169Z,92.66
2018-06-18T20:42:28.633Z,91.50
2018-06-18T20:44:28.685Z,91.21
2018-06-18T20:45:28.676Z,91.50
2018-06-18T20:47:28.599Z,91.31
2018-06-18T20:48:27.510Z,91.60
2018-06-18T20:52:20.807Z,91.31
2018-06-18T20:53:21.013Z,92.22
2018-06-18T20:55:20.320Z,91.75
2018-06-18T20:56:20.265Z,92.03
2018-06-18T20:58:22.322Z,91.65
2018-06-18T20:59:22.207Z,92.22
2018-06-18T21:01:23.157Z,92.13
2018-06-18T21:02:22.581Z,91.84
2018-06-18T21:04:22.985Z,91.94
2018-06-18T21:05:22.990Z,92.32
2018-06-18T21:07:23.465Z,91.84
2018-06-18T21:08:23.484Z,91.84
2018-06-18T21:12:48.610Z,92.42
2018-06-18T21:13:48.529Z,92.42
2018-06-18T21:15:50.569Z,92.32
2018-06-18T21:18:27.516Z,93.00
2018-06-18T21:19:26.574Z,92.61
2018-06-18T21:21:26.691Z,93.05
2018-06-18T21:22:26.147Z,93.05
2018-06-18T21:24:26.526Z,92.95
2018-06-18T21:25:26.539Z,92.95
2018-06-18T21:27:25.591Z,93.24
2018-06-18T21:28:25.548Z,93.53
2018-06-18T21:30:25.170Z,93.53
2018-06-18T21:31:25.685Z,93.53
2018-06-18T21:33:26.141Z,93.05
2018-06-18T21:34:27.004Z,93.05
2018-06-18T21:36:43.579Z,93.62
2018-06-18T21:37:47.723Z,93.53
2018-06-18T21:40:05.596Z,93.43
2018-06-18T21:54:37.895Z,93.82
2018-06-18T21:55:51.212Z,93.33
2018-06-18T21:57:36.381Z,93.53
2018-06-18T21:58:39.315Z,93.62
2018-06-18T22:00:42.447Z,93.62
2018-06-18T22:01:41.862Z,93.33
2018-06-18T22:03:45.354Z,94.49
2018-06-18T22:04:46.842Z,94.68
